createdAt,value
2022-10-22T00:00:08.955Z,6.47
2022-10-22T00:02:36.401Z,7.47
2022-10-22T00:05:04.780Z,10.77
2022-10-22T00:07:32.462Z,7.55
2022-10-22T00:09:59.551Z,8.23
2022-10-22T00:12:27.312Z,6.03
2022-10-22T00:14:54.431Z,7.22
2022-10-22T00:17:21.631Z,13.18
2022-10-22T00:19:48.637Z,7.63
2022-10-22T00:22:16.048Z,7.38
2022-10-22T00:24:43.222Z,8.93
2022-10-22T00:27:11.518Z,7.80
2022-10-22T00:29:38.639Z,9.25
2022-10-22T00:32:06.805Z,8.20
2022-10-22T00:34:34.017Z,7.03
2022-10-22T00:37:03.869Z,6.75
2022-10-22T00:39:31.428Z,7.50
2022-10-22T00:41:59.336Z,7.75
2022-10-22T00:45:21.442Z,6.95
2022-10-22T00:48:23.197Z,7.60
2022-10-22T00:50:56.924Z,7.63
2022-10-22T00:55:54.564Z,7.00
2022-10-22T00:58:25.953Z,9.55
2022-10-22T01:00:53.572Z,9.70
2022-10-22T01:03:20.828Z,7.05
2022-10-22T01:06:00.157Z,7.18
2022-10-22T01:09:02.178Z,10.00
2022-10-22T01:11:53.514Z,10.68
2022-10-22T01:15:01.929Z,11.93
2022-10-22T01:17:46.468Z,9.73
2022-10-22T01:20:38.163Z,7.47
2022-10-22T01:23:22.845Z,9.00
2022-10-22T01:25:55.606Z,10.98
2022-10-22T01:28:44.143Z,13.20
2022-10-22T01:31:13.463Z,11.75
2022-10-22T01:33:42.173Z,8.45
2022-10-22T01:36:10.597Z,8.50
2022-10-22T01:38:39.887Z,7.68
2022-10-22T01:41:07.774Z,5.72
2022-10-22T01:43:34.759Z,5.93
2022-10-22T01:46:05.791Z,8.25
2022-10-22T01:48:35.741Z,14.10
2022-10-22T01:51:20.463Z,11.40
2022-10-22T01:54:25.017Z,9.63
2022-10-22T01:57:08.898Z,7.80
2022-10-22T02:00:02.543Z,7.00
2022-10-22T02:02:42.996Z,8.15
2022-10-22T02:05:25.084Z,6.97
2022-10-22T02:07:55.886Z,10.93
2022-10-22T02:10:24.295Z,10.02
2022-10-22T02:12:54.901Z,9.20
2022-10-22T02:15:26.158Z,8.25
2022-10-22T02:17:57.869Z,9.00
2022-10-22T02:20:31.319Z,8.25
2022-10-22T02:23:03.391Z,9.32
2022-10-22T02:25:38.055Z,10.75
2022-10-22T02:28:19.519Z,6.63
2022-10-22T02:30:55.129Z,9.27
2022-10-22T02:33:31.482Z,7.40
2022-10-22T02:36:01.259Z,14.27
2022-10-22T02:38:29.595Z,10.30
2022-10-22T02:40:56.814Z,8.55
2022-10-22T02:43:24.676Z,11.45
2022-10-22T02:45:51.793Z,5.47
2022-10-22T02:48:18.766Z,8.63
2022-10-22T02:50:45.767Z,8.02
2022-10-22T02:53:12.843Z,10.00
2022-10-22T02:55:39.876Z,9.63
2022-10-22T02:58:06.887Z,8.75
2022-10-22T03:00:33.988Z,9.60
2022-10-22T03:03:01.650Z,6.90
2022-10-22T03:05:28.863Z,8.98
2022-10-22T03:07:56.220Z,16.00
2022-10-22T03:10:23.366Z,10.43
2022-10-22T03:12:50.352Z,11.68
2022-10-22T03:15:17.474Z,9.70
2022-10-22T03:17:44.476Z,13.85
2022-10-22T03:20:11.458Z,7.60
2022-10-22T03:22:40.254Z,13.13
2022-10-22T03:25:12.296Z,7.97
2022-10-22T03:27:41.855Z,10.18
2022-10-22T03:30:09.691Z,11.68
2022-10-22T03:32:36.768Z,13.13
2022-10-22T03:35:05.562Z,18.20
2022-10-22T03:37:34.094Z,9.52
2022-10-22T03:40:06.564Z,7.57
2022-10-22T03:42:33.663Z,8.02
2022-10-22T03:45:01.189Z,9.48
2022-10-22T03:47:28.251Z,12.63
2022-10-22T03:49:55.364Z,5.65
2022-10-22T03:52:22.385Z,12.32
2022-10-22T03:54:49.405Z,8.65
2022-10-22T03:57:16.407Z,9.35
2022-10-22T03:59:45.222Z,7.22
2022-10-22T04:02:13.281Z,7.57
2022-10-22T04:04:40.333Z,8.55
2022-10-22T04:07:08.558Z,10.07
2022-10-22T04:09:35.797Z,7.90
2022-10-22T04:12:05.433Z,7.30
2022-10-22T04:14:32.432Z,11.27
2022-10-22T04:17:01.757Z,10.27
2022-10-22T04:19:29.152Z,11.05
2022-10-22T04:22:01.192Z,11.45
2022-10-22T04:24:30.647Z,12.13
2022-10-22T04:26:58.015Z,11.00
2022-10-22T04:29:25.060Z,14.50
2022-10-22T04:31:52.722Z,10.75
2022-10-22T04:34:20.166Z,13.40
2022-10-22T04:36:47.225Z,9.98
2022-10-22T04:39:14.703Z,12.23
2022-10-22T04:41:41.779Z,12.00
2022-10-22T04:44:12.334Z,7.50
2022-10-22T04:46:44.046Z,17.77
2022-10-22T04:49:11.074Z,6.88
2022-10-22T04:51:38.215Z,12.27
2022-10-22T04:54:05.880Z,10.52
2022-10-22T04:56:33.441Z,12.77
2022-10-22T04:59:03.620Z,8.70
2022-10-22T05:01:40.010Z,9.93
2022-10-22T05:04:15.789Z,10.23
2022-10-22T05:06:44.063Z,14.55
2022-10-22T05:09:19.430Z,10.32
2022-10-22T05:11:48.973Z,14.70
2022-10-22T05:14:19.288Z,10.90
2022-10-22T05:16:48.546Z,6.15
2022-10-22T05:19:25.190Z,12.25
2022-10-22T05:21:54.201Z,8.18
2022-10-22T05:24:21.704Z,9.05
2022-10-22T05:26:50.838Z,13.75
2022-10-22T05:29:17.972Z,12.18
2022-10-22T05:31:45.007Z,7.65
2022-10-22T05:34:12.885Z,9.38
2022-10-22T05:36:40.669Z,11.43
2022-10-22T05:39:08.005Z,10.85
2022-10-22T05:41:38.629Z,10.52
2022-10-22T05:44:05.989Z,9.90
2022-10-22T05:46:35.287Z,7.00
2022-10-22T05:49:04.724Z,8.00
2022-10-22T05:51:34.141Z,11.63
2022-10-22T05:54:03.863Z,10.32
2022-10-22T05:56:32.237Z,11.20
2022-10-22T05:59:00.511Z,9.60
2022-10-22T06:01:35.238Z,9.15
2022-10-22T06:04:05.024Z,12.10
2022-10-22T06:06:52.538Z,13.57
2022-10-22T06:09:19.482Z,7.85
2022-10-22T06:11:47.395Z,9.88
2022-10-22T06:14:14.886Z,8.75
2022-10-22T06:16:42.146Z,12.95
2022-10-22T06:19:12.197Z,8.32
2022-10-22T06:21:39.650Z,8.48
2022-10-22T06:24:08.001Z,14.00
2022-10-22T06:26:35.059Z,10.73
2022-10-22T06:29:02.093Z,13.25
2022-10-22T06:31:36.388Z,11.80
2022-10-22T06:34:05.580Z,11.50
2022-10-22T06:36:32.674Z,15.18
2022-10-22T06:39:00.833Z,10.25
2022-10-22T06:44:19.740Z,13.85
2022-10-22T06:46:51.961Z,10.27
2022-10-22T06:49:19.979Z,10.07
2022-10-22T06:51:51.120Z,10.50
2022-10-22T06:54:18.640Z,17.63
2022-10-22T06:56:45.676Z,7.85
2022-10-22T06:59:12.936Z,11.23
2022-10-22T07:01:40.931Z,13.80
2022-10-22T07:04:09.981Z,9.70
2022-10-22T07:06:37.035Z,7.75
2022-10-22T07:09:04.204Z,10.38
2022-10-22T07:11:40.720Z,8.25
2022-10-22T07:14:08.392Z,6.47
2022-10-22T07:16:35.437Z,9.57
2022-10-22T07:19:03.910Z,7.75
2022-10-22T07:21:34.188Z,10.55
2022-10-22T07:24:02.028Z,6.57
2022-10-22T07:26:32.426Z,11.02
2022-10-22T07:29:02.939Z,8.13
2022-10-22T07:31:31.666Z,12.68
2022-10-22T07:33:59.110Z,9.68
2022-10-22T07:36:26.189Z,12.27
2022-10-22T07:38:55.739Z,10.00
2022-10-22T07:41:23.766Z,9.02
2022-10-22T07:43:50.827Z,11.00
2022-10-22T07:46:18.066Z,13.88
2022-10-22T07:48:45.082Z,11.25
2022-10-22T07:51:12.312Z,11.13
2022-10-22T07:53:39.625Z,10.02
2022-10-22T07:56:07.478Z,15.20
2022-10-22T07:58:34.835Z,9.65
2022-10-22T08:01:05.585Z,12.50
2022-10-22T08:03:33.007Z,7.45
2022-10-22T08:06:01.516Z,10.50
2022-10-22T08:08:30.943Z,11.80
2022-10-22T08:11:01.569Z,10.57
2022-10-22T08:13:31.601Z,13.90
2022-10-22T08:16:02.285Z,8.25
2022-10-22T08:18:31.562Z,8.52
2022-10-22T08:21:00.596Z,12.85
2022-10-22T08:23:29.153Z,7.53
2022-10-22T08:25:57.301Z,4.20
2022-10-22T08:28:24.788Z,10.50
2022-10-22T08:30:51.799Z,12.95
2022-10-22T08:33:18.865Z,13.88
2022-10-22T08:35:49.477Z,7.72
2022-10-22T08:38:16.564Z,11.20
2022-10-22T08:40:50.143Z,12.48
2022-10-22T08:43:55.358Z,7.18
2022-10-22T08:46:38.913Z,6.47
2022-10-22T08:49:12.572Z,8.35
2022-10-22T08:51:41.078Z,7.65
2022-10-22T08:54:22.110Z,5.90
2022-10-22T08:57:09.275Z,9.27
2022-10-22T08:59:45.866Z,8.50
2022-10-22T09:02:34.607Z,5.57
2022-10-22T09:05:24.785Z,7.82
2022-10-22T09:07:53.092Z,4.72
2022-10-22T09:10:24.411Z,5.05
2022-10-22T09:12:51.473Z,5.22
2022-10-22T09:15:20.174Z,11.05
2022-10-22T09:18:01.922Z,8.85
2022-10-22T09:20:40.989Z,10.45
2022-10-22T09:23:37.687Z,7.60
2022-10-22T09:26:13.557Z,6.35
2022-10-22T09:28:41.296Z,7.53
2022-10-22T09:31:14.142Z,8.68
2022-10-22T09:33:43.296Z,12.07
2022-10-22T09:36:16.713Z,8.48
2022-10-22T09:38:52.352Z,9.55
2022-10-22T09:41:23.156Z,6.40
2022-10-22T09:43:50.191Z,7.03
2022-10-22T09:46:23.895Z,6.10
2022-10-22T09:52:01.599Z,6.30
2022-10-22T09:54:41.397Z,17.40
2022-10-22T09:57:21.999Z,11.82
2022-10-22T09:59:51.383Z,8.23
2022-10-22T10:02:38.387Z,11.35
2022-10-22T10:05:07.390Z,11.07
2022-10-22T10:07:36.032Z,7.93
2022-10-22T10:10:18.490Z,5.93
2022-10-22T10:13:03.021Z,6.75
2022-10-22T10:15:44.545Z,10.60
2022-10-22T10:18:39.636Z,9.35
2022-10-22T10:21:24.019Z,6.00
2022-10-22T10:24:03.033Z,17.35
2022-10-22T10:26:45.699Z,7.47
2022-10-22T10:29:28.158Z,8.77
2022-10-22T10:32:32.655Z,4.72
2022-10-22T10:35:02.834Z,12.63
2022-10-22T10:37:38.457Z,5.32
2022-10-22T10:40:11.258Z,8.55
2022-10-22T10:43:00.291Z,5.70
2022-10-22T10:46:05.235Z,6.80
2022-10-22T10:48:52.587Z,4.85
2022-10-22T10:51:37.714Z,7.20
2022-10-22T10:54:07.385Z,8.25
2022-10-22T10:56:45.290Z,10.23
2022-10-22T10:59:18.274Z,8.38
2022-10-22T11:01:54.120Z,6.03
2022-10-22T11:04:42.819Z,11.02
2022-10-22T11:07:23.390Z,7.28
2022-10-22T11:10:27.172Z,5.20
2022-10-22T11:13:02.023Z,3.60
2022-10-22T11:15:42.023Z,4.50
2022-10-22T11:18:25.795Z,7.60
2022-10-22T11:21:15.772Z,3.90
2022-10-22T11:23:48.461Z,7.15
2022-10-22T11:26:24.605Z,3.72
2022-10-22T11:28:53.822Z,8.85
2022-10-22T11:31:23.484Z,7.75
2022-10-22T11:34:32.213Z,2.95
2022-10-22T11:37:04.851Z,5.63
2022-10-22T11:39:38.096Z,6.07
2022-10-22T11:42:11.003Z,11.00
2022-10-22T11:45:04.129Z,9.18
2022-10-22T11:48:17.125Z,4.85
2022-10-22T11:51:00.231Z,3.47
2022-10-22T11:53:35.781Z,5.53
2022-10-22T11:56:13.025Z,7.97
2022-10-22T11:58:43.797Z,11.90
2022-10-22T12:01:11.053Z,8.95
2022-10-22T12:03:43.933Z,6.57
2022-10-22T12:06:11.933Z,6.03
2022-10-22T12:08:49.513Z,10.80
2022-10-22T12:11:27.867Z,10.43
2022-10-22T12:14:16.466Z,9.25
2022-10-22T12:16:57.819Z,6.95
2022-10-22T12:19:39.625Z,5.50
2022-10-22T12:22:06.577Z,5.20
2022-10-22T12:24:40.656Z,4.95
2022-10-22T12:27:23.180Z,6.78
2022-10-22T12:29:55.626Z,12.23
2022-10-22T12:32:23.232Z,14.40
2022-10-22T12:34:52.319Z,5.40
2022-10-22T12:37:20.317Z,4.63
2022-10-22T12:39:47.685Z,6.95
2022-10-22T12:42:18.394Z,14.07
2022-10-22T12:44:45.530Z,6.22
2022-10-22T12:47:17.001Z,6.53
2022-10-22T12:49:49.307Z,13.38
2022-10-22T12:52:20.260Z,6.95
2022-10-22T12:54:52.433Z,5.22
2022-10-22T12:57:21.105Z,6.65
2022-10-22T12:59:51.488Z,8.07
2022-10-22T13:02:21.549Z,11.60
2022-10-22T13:05:27.058Z,6.47
2022-10-22T13:08:05.599Z,4.30
2022-10-22T13:10:36.314Z,12.70
2022-10-22T13:13:06.382Z,5.85
2022-10-22T13:15:36.346Z,5.18
2022-10-22T13:18:22.254Z,7.65
2022-10-22T13:21:02.906Z,11.65
2022-10-22T13:23:32.794Z,5.35
2022-10-22T13:26:04.506Z,12.88
2022-10-22T13:28:32.614Z,8.73
2022-10-22T13:31:08.121Z,7.60
2022-10-22T13:33:38.896Z,8.10
2022-10-22T13:36:06.587Z,7.95
2022-10-22T13:38:33.650Z,7.93
2022-10-22T13:41:03.192Z,7.43
2022-10-22T13:43:30.514Z,7.35
2022-10-22T13:46:00.248Z,8.65
2022-10-22T13:48:31.149Z,14.48
2022-10-22T13:50:58.243Z,14.15
2022-10-22T13:53:26.821Z,10.88
2022-10-22T13:55:54.029Z,4.72
2022-10-22T13:58:26.759Z,5.68
2022-10-22T14:00:57.314Z,7.13
2022-10-22T14:03:34.236Z,10.45
2022-10-22T14:06:01.708Z,7.32
2022-10-22T14:08:29.362Z,6.80
2022-10-22T14:10:56.489Z,6.95
2022-10-22T14:13:23.811Z,9.27
2022-10-22T14:15:52.319Z,15.57
2022-10-22T14:18:29.482Z,15.75
2022-10-22T14:21:01.162Z,5.88
2022-10-22T14:23:30.262Z,8.35
2022-10-22T14:25:58.164Z,10.45
2022-10-22T14:28:25.305Z,8.88
2022-10-22T14:30:52.901Z,9.35
2022-10-22T14:33:30.390Z,8.02
2022-10-22T14:36:00.279Z,10.73
2022-10-22T14:38:27.396Z,6.43
2022-10-22T14:40:55.159Z,6.97
2022-10-22T14:43:31.359Z,9.10
2022-10-22T14:45:58.573Z,6.18
2022-10-22T14:48:26.511Z,7.38
2022-10-22T14:50:54.677Z,16.25
2022-10-22T14:53:21.694Z,10.60
2022-10-22T14:55:51.360Z,7.90
2022-10-22T14:58:18.596Z,7.47
2022-10-22T15:00:45.773Z,8.45
2022-10-22T15:03:12.844Z,6.70
2022-10-22T15:05:44.551Z,7.57
2022-10-22T15:08:45.117Z,12.50
2022-10-22T15:11:13.248Z,9.25
2022-10-22T15:13:42.044Z,8.68
2022-10-22T15:16:10.711Z,6.70
2022-10-22T15:18:37.821Z,5.10
2022-10-22T15:21:08.603Z,10.05
2022-10-22T15:23:36.796Z,7.88
2022-10-22T15:26:08.163Z,10.98
2022-10-22T15:28:36.992Z,7.30
2022-10-22T15:31:04.168Z,5.60
2022-10-22T15:33:31.535Z,8.68
2022-10-22T15:35:59.177Z,6.32
2022-10-22T15:41:05.650Z,10.40
2022-10-22T15:43:34.042Z,8.75
2022-10-22T15:46:10.942Z,8.32
2022-10-22T15:48:38.567Z,7.50
2022-10-22T15:51:10.912Z,4.40
2022-10-22T15:53:38.037Z,12.30
2022-10-22T15:56:05.462Z,7.80
2022-10-22T15:58:32.569Z,8.98
2022-10-22T16:01:07.344Z,9.50
2022-10-22T16:03:34.980Z,11.70
2022-10-22T16:06:02.683Z,32.50
2022-10-22T16:08:31.331Z,38.53
2022-10-22T16:10:59.209Z,23.20
2022-10-22T16:13:26.798Z,25.08
2022-10-22T16:15:53.906Z,19.15
2022-10-22T16:18:21.674Z,13.23
2022-10-22T16:20:48.750Z,13.55
2022-10-22T16:23:18.764Z,12.30
2022-10-22T16:25:46.687Z,12.50
2022-10-22T16:28:14.046Z,10.80
2022-10-22T16:30:41.703Z,24.40
2022-10-22T16:33:10.092Z,29.40
2022-10-22T16:35:41.959Z,26.15
2022-10-22T16:38:11.048Z,21.73
2022-10-22T16:40:38.345Z,13.70
2022-10-22T16:43:05.725Z,24.63
2022-10-22T16:45:32.856Z,22.00
2022-10-22T16:48:00.891Z,19.30
2022-10-22T16:50:28.111Z,19.02
2022-10-22T16:52:55.232Z,24.10
2022-10-22T16:55:22.307Z,11.95
2022-10-22T16:57:53.432Z,9.10
2022-10-22T17:00:20.876Z,14.05
2022-10-22T17:02:53.051Z,11.93
2022-10-22T17:05:21.071Z,16.52
2022-10-22T17:07:48.284Z,17.00
2022-10-22T17:10:16.702Z,10.93
2022-10-22T17:12:43.949Z,18.52
2022-10-22T17:15:11.569Z,10.95
2022-10-22T17:17:39.573Z,7.47
2022-10-22T17:20:07.251Z,8.40
2022-10-22T17:22:35.652Z,10.88
2022-10-22T17:25:44.399Z,16.35
2022-10-22T17:28:11.854Z,11.25
2022-10-22T17:30:40.698Z,17.27
2022-10-22T17:33:08.557Z,15.35
2022-10-22T17:35:39.998Z,13.13
2022-10-22T17:38:07.613Z,9.98
2022-10-22T17:40:35.419Z,15.60
2022-10-22T17:43:02.465Z,15.98
2022-10-22T17:45:30.031Z,16.02
2022-10-22T17:47:57.262Z,17.70
2022-10-22T17:50:24.314Z,23.60
2022-10-22T17:52:51.324Z,17.80
2022-10-22T17:55:18.344Z,16.92
2022-10-22T17:57:45.363Z,18.42
2022-10-22T18:00:13.603Z,20.67
2022-10-22T18:02:42.504Z,12.63
2022-10-22T18:05:10.248Z,24.30
2022-10-22T18:07:37.265Z,15.00
2022-10-22T18:10:04.599Z,15.05
2022-10-22T18:12:31.619Z,20.98
2022-10-22T18:14:58.642Z,26.58
2022-10-22T18:17:26.216Z,18.85
2022-10-22T18:19:53.224Z,22.85
2022-10-22T18:22:20.267Z,15.60
2022-10-22T18:24:47.301Z,17.73
2022-10-22T18:27:14.391Z,18.83
2022-10-22T18:29:41.461Z,21.45
2022-10-22T18:32:12.951Z,13.25
2022-10-22T18:34:40.689Z,21.42
2022-10-22T18:37:07.778Z,18.55
2022-10-22T18:39:35.070Z,14.13
2022-10-22T18:42:06.120Z,18.15
2022-10-22T18:44:34.633Z,17.42
2022-10-22T18:47:01.643Z,20.92
2022-10-22T18:49:29.293Z,19.58
2022-10-22T18:51:56.448Z,17.67
2022-10-22T18:54:24.444Z,19.60
2022-10-22T18:56:53.443Z,15.40
2022-10-22T18:59:22.777Z,19.63
2022-10-22T19:01:52.023Z,19.65
2022-10-22T19:04:19.318Z,16.55
2022-10-22T19:06:46.343Z,31.05
2022-10-22T19:09:16.767Z,16.77
2022-10-22T19:11:45.269Z,21.45
2022-10-22T19:14:14.015Z,23.75
2022-10-22T19:16:41.065Z,24.23
2022-10-22T19:19:08.304Z,18.08
2022-10-22T19:21:36.435Z,27.15
2022-10-22T19:24:03.950Z,21.65
2022-10-22T19:26:31.397Z,25.13
2022-10-22T19:28:59.990Z,26.02
2022-10-22T19:31:30.736Z,26.27
2022-10-22T19:34:01.562Z,34.92
2022-10-22T19:36:32.499Z,28.13
2022-10-22T19:39:01.793Z,32.30
2022-10-22T19:41:32.225Z,23.30
2022-10-22T19:44:03.737Z,23.10
2022-10-22T19:46:33.615Z,31.45
2022-10-22T19:49:03.389Z,20.98
2022-10-22T19:51:33.480Z,27.77
2022-10-22T19:54:08.968Z,22.50
2022-10-22T19:56:37.576Z,24.25
2022-10-22T19:59:05.505Z,25.70
2022-10-22T20:01:32.755Z,32.58
2022-10-22T20:04:01.468Z,22.27
2022-10-22T20:06:29.968Z,22.92
2022-10-22T20:08:57.717Z,24.75
2022-10-22T20:11:27.989Z,26.20
2022-10-22T20:13:56.663Z,25.02
2022-10-22T20:16:26.050Z,19.92
2022-10-22T20:18:53.231Z,38.70
2022-10-22T20:21:21.106Z,38.65
2022-10-22T20:23:52.162Z,37.22
2022-10-22T20:26:20.209Z,31.67
2022-10-22T20:28:47.242Z,37.97
2022-10-22T20:31:17.367Z,35.55
2022-10-22T20:33:44.408Z,36.08
2022-10-22T20:36:17.995Z,36.03
2022-10-22T20:38:47.858Z,41.38
2022-10-22T20:41:18.328Z,33.53
2022-10-22T20:43:46.545Z,30.85
2022-10-22T20:46:29.791Z,34.33
2022-10-22T20:49:01.290Z,30.90
2022-10-22T20:51:29.400Z,31.65
2022-10-22T20:53:57.002Z,27.70
2022-10-22T20:56:24.593Z,26.85
2022-10-22T20:58:57.125Z,29.98
2022-10-22T21:01:24.394Z,41.00
2022-10-22T21:03:52.730Z,31.42
2022-10-22T21:06:23.193Z,35.45
2022-10-22T21:08:51.756Z,33.10
2022-10-22T21:11:20.288Z,29.92
2022-10-22T21:13:47.352Z,31.00
2022-10-22T21:16:17.019Z,39.22
2022-10-22T21:18:44.673Z,29.23
2022-10-22T21:21:12.766Z,29.38
2022-10-22T21:23:40.617Z,35.33
2022-10-22T21:26:07.734Z,23.20
2022-10-22T21:28:36.859Z,30.02
2022-10-22T21:31:05.694Z,24.70
2022-10-22T21:33:36.639Z,26.25
2022-10-22T21:36:04.962Z,33.08
2022-10-22T21:38:32.354Z,22.77
2022-10-22T21:41:03.407Z,21.05
2022-10-22T21:43:31.017Z,26.60
2022-10-22T21:46:09.549Z,22.27
2022-10-22T21:48:37.774Z,24.63
2022-10-22T21:51:09.795Z,22.50
2022-10-22T21:53:37.202Z,22.15
2022-10-22T21:56:05.396Z,24.70
2022-10-22T21:58:35.223Z,24.42
2022-10-22T22:01:02.824Z,21.58
2022-10-22T22:03:30.753Z,23.65
2022-10-22T22:06:02.338Z,24.13
2022-10-22T22:08:30.152Z,24.25
2022-10-22T22:11:03.172Z,29.83
2022-10-22T22:13:33.426Z,27.73
2022-10-22T22:16:06.047Z,35.70
2022-10-22T22:18:34.212Z,32.03
2022-10-22T22:21:04.970Z,30.27
2022-10-22T22:23:32.380Z,33.33
2022-10-22T22:26:01.154Z,33.08
2022-10-22T22:28:33.457Z,36.55
2022-10-22T22:31:01.829Z,39.25
2022-10-22T22:33:29.110Z,35.95
2022-10-22T22:35:59.967Z,34.20
2022-10-22T22:38:26.977Z,33.78
2022-10-22T22:40:53.986Z,38.35
2022-10-22T22:43:21.140Z,39.28
2022-10-22T22:45:48.211Z,31.52
2022-10-22T22:48:15.215Z,33.20
2022-10-22T22:50:42.255Z,35.40
2022-10-22T22:53:09.244Z,32.50
2022-10-22T22:55:36.286Z,28.95
2022-10-22T22:58:03.304Z,30.15
2022-10-22T23:00:31.246Z,30.38
2022-10-22T23:02:58.273Z,29.73
2022-10-22T23:05:25.285Z,29.00
2022-10-22T23:07:52.309Z,28.38
2022-10-22T23:10:19.446Z,26.55
2022-10-22T23:12:46.513Z,32.53
2022-10-22T23:15:13.557Z,30.48
2022-10-22T23:17:40.750Z,24.70
2022-10-22T23:20:08.429Z,23.50
2022-10-22T23:22:35.551Z,22.10
2022-10-22T23:25:02.616Z,25.65
2022-10-22T23:27:30.521Z,21.70
2022-10-22T23:29:57.615Z,27.80
2022-10-22T23:32:24.613Z,24.65
2022-10-22T23:34:51.612Z,23.60
2022-10-22T23:37:18.670Z,23.02
2022-10-22T23:39:45.699Z,21.38
2022-10-22T23:42:12.722Z,23.10
2022-10-22T23:44:39.799Z,18.20
2022-10-22T23:47:06.807Z,22.55
2022-10-22T23:49:33.957Z,23.58
2022-10-22T23:52:03.784Z,17.73
2022-10-22T23:54:33.679Z,23.25
2022-10-22T23:57:01.636Z,23.42
2022-10-22T23:59:28.648Z,20.58
